This is the latest recevied weather packets stored in our database for station/object N6RDS. If no packets are shown the sender has not sent any weather packets the latest 1 day(s).
| Time | Temp. | Humidity | Pressure | Rain* | Wind** | Luminosity | Snow |
|---|---|---|---|---|---|---|---|
| 1778028346 | 4.44° C | 88% | 1019.7 hPa | 0 mm | - | 41 W/m² | - |
| 1778028043 | 3.89° C | 88% | 1020 hPa | 0 mm | - | 37 W/m² | - |
| 1778027739 | 3.89° C | 88% | 1019.7 hPa | 0 mm | - | 33 W/m² | - |
| 1778027436 | 3.89° C | 88% | 1020 hPa | 0 mm | - | 34 W/m² | - |
| 1778026524 | 3.89° C | 86% | 1019.9 hPa | 1.78 mm | - | 53 W/m² | - |
| 1778026221 | 3.89° C | 85% | 1019.7 hPa | 0 mm | - | 50 W/m² | - |
| 1778024708 | 3.89° C | 88% | 1019.7 hPa | 0 mm | - | 28 W/m² | - |
| 1778023194 | 3.89° C | 90% | 1019.1 hPa | 0 mm | - | 19 W/m² | - |
| 1778022287 | 3.89° C | 91% | 1019.5 hPa | 0 mm | - | 15 W/m² | - |
| 1778021983 | 3.89° C | 89% | 1019.5 hPa | 1.27 mm | - | 17 W/m² | - |
| 1778020770 | 3.89° C | 90% | 1019.2 hPa | 1.78 mm | - | 17 W/m² | - |
| 1778019556 | 3.89° C | 88% | 1019.9 hPa | 1.78 mm | - | 15 W/m² | - |
| 1778018345 | 3.33° C | 90% | 1019.5 hPa | 1.27 mm | - | 22 W/m² | - |
| 1778018043 | 2.78° C | 89% | 1019.7 hPa | 3.05 mm | - | 21 W/m² | - |
| 1778017741 | 2.78° C | 88% | 1019.6 hPa | 3.05 mm | - | 19 W/m² | - |
| 1778017438 | 3.33° C | 87% | 1019.5 hPa | 3.05 mm | - | 17 W/m² | - |
| 1778017135 | 3.33° C | 85% | 1019.6 hPa | 3.05 mm | - | 18 W/m² | - |
| 1778016226 | 3.89° C | 79% | 1019.9 hPa | 1.27 mm | - | 20 W/m² | - |
| 1778015013 | 5.56° C | 65% | 1019.9 hPa | 0 mm | - | 16 W/m² | - |
| 1778011681 | 10° C | 52% | 1019.2 hPa | 0 mm | - | 44 W/m² | - |
| 1778009256 | 11.11° C | 48% | 1019 hPa | 0 mm | - | 186 W/m² | - |
* Rain latest hour (hover to see other rain measurements)
** Current wind speed in m/s (hover to see current wind gust speed)